Time;durP1;ratioP1;P1;durP2;ratioP2;P2;SDS_P1;SDS_P2;PMS_P1;PMS_P2;Temp;Humidity;BMP_temperature;BMP_pressure;BME280_temperature;BME280_humidity;BME280_pressure;Samples;Min_cycle;Max_cycle;Signal;HPM_P1;HPM_P2
2022/12/24 00:03:07;;;;;;;0.60;0.50;;;;;;;5.16;100.00;100112.16;10605043;27;20058;-77
2022/12/24 00:08:09;;;;;;;0.80;0.75;;;;;;;5.18;100.00;100117.38;10560238;27;20073;-77
2022/12/24 00:13:10;;;;;;;0.93;0.82;;;;;;;5.16;100.00;100116.47;10575882;27;20051;-77
2022/12/24 00:18:12;;;;;;;0.95;0.77;;;;;;;5.22;100.00;100107.13;10553733;27;20055;-77
2022/12/24 00:23:15;;;;;;;1.58;0.63;;;;;;;5.24;100.00;100112.38;10550716;27;20691;-77
2022/12/24 00:28:17;;;;;;;1.23;0.60;;;;;;;5.16;100.00;100114.75;10565405;27;20464;-77
2022/12/24 00:33:18;;;;;;;0.52;0.47;;;;;;;5.20;100.00;100111.41;10573287;27;20052;-78
2022/12/24 00:38:25;;;;;;;0.50;0.50;;;;;;;5.21;100.00;100125.25;10589385;27;20491;-79
2022/12/24 00:43:28;;;;;;;0.82;0.57;;;;;;;5.18;100.00;100122.59;10567602;27;20051;-78
2022/12/24 00:48:29;;;;;;;0.85;0.52;;;;;;;5.18;100.00;100132.97;10564368;27;20051;-78
2022/12/24 00:53:31;;;;;;;1.02;0.68;;;;;;;5.20;100.00;100144.28;10564404;27;20045;-78
2022/12/24 00:58:33;;;;;;;1.05;0.73;;;;;;;5.20;100.00;100150.34;10579345;27;20114;-78
2022/12/24 01:03:35;;;;;;;0.30;0.30;;;;;;;5.18;100.00;100148.53;10573648;27;20051;-78
2022/12/24 01:08:37;;;;;;;0.63;0.63;;;;;;;5.13;100.00;100151.00;10569923;27;20518;-79
2022/12/24 01:13:39;;;;;;;0.10;0.10;;;;;;;5.18;100.00;100158.91;10562252;27;20051;-78
2022/12/24 01:18:40;;;;;;;0.47;0.47;;;;;;;5.22;100.00;100156.44;10553753;28;20053;-78
2022/12/24 01:23:42;;;;;;;0.30;0.30;;;;;;;5.21;100.00;100159.00;10562937;28;20050;-77
2022/12/24 01:28:44;;;;;;;0.75;0.63;;;;;;;5.21;100.00;100169.38;10536590;28;20052;-80
2022/12/24 01:33:48;;;;;;;0.43;0.43;;;;;;;5.16;100.00;100174.44;10543828;28;20048;-78
2022/12/24 01:38:49;;;;;;;0.35;0.35;;;;;;;5.20;100.00;100171.13;10562200;28;20044;-78
2022/12/24 01:43:51;;;;;;;1.15;0.95;;;;;;;5.21;100.00;100174.56;10543768;28;20047;-79
2022/12/24 01:48:56;;;;;;;0.35;0.35;;;;;;;5.13;100.00;100171.75;10562727;28;20055;-77
2022/12/24 01:54:15;;;;;;;0.75;0.47;;;;;;;5.15;100.00;100177.91;10562518;28;20051;-78
2022/12/24 01:59:18;;;;;;;0.35;0.35;;;;;;;5.21;100.00;100180.66;10553428;28;20040;-79
2022/12/24 02:04:51;;;;;;;1.17;1.08;;;;;;;5.13;100.00;100190.84;10571393;28;20395;-78
2022/12/24 02:09:57;;;;;;;0.45;0.35;;;;;;;5.16;100.00;100194.34;10571509;28;20533;-79
2022/12/24 02:14:59;;;;;;;0.85;0.52;;;;;;;5.21;100.00;100200.53;10572396;27;20046;-78
2022/12/24 02:20:11;;;;;;;0.55;0.40;;;;;;;5.15;100.00;100198.66;10572620;28;20142;-78
2022/12/24 02:25:40;;;;;;;0.60;0.38;;;;;;;5.19;100.00;100202.22;10562909;27;20051;-78
2022/12/24 02:30:52;;;;;;;0.47;0.40;;;;;;;5.22;100.00;100205.78;10594713;27;20043;-78
2022/12/24 02:36:05;;;;;;;0.98;0.55;;;;;;;5.18;100.00;100206.53;10579086;27;20403;-78
2022/12/24 02:41:13;;;;;;;0.40;0.40;;;;;;;5.26;100.00;100219.75;10565786;27;20071;-78
2022/12/24 02:46:20;;;;;;;0.25;0.22;;;;;;;5.16;100.00;100226.34;10559858;27;20040;-77
2022/12/24 02:51:23;;;;;;;1.15;0.82;;;;;;;5.14;100.00;100238.41;10580582;27;20651;-77
2022/12/24 02:56:38;;;;;;;0.50;0.50;;;;;;;5.17;100.00;100248.91;10594172;27;20043;-77
2022/12/24 03:01:56;;;;;;;0.45;0.38;;;;;;;5.23;100.00;100243.00;10586726;27;20047;-77
2022/12/24 03:07:26;;;;;;;0.60;0.40;;;;;;;5.24;100.00;100248.25;10584829;27;20043;-77
2022/12/24 03:13:00;;;;;;;2.47;2.27;;;;;;;5.26;100.00;100258.69;10556654;27;20058;-77
2022/12/24 03:18:04;;;;;;;0.63;0.63;;;;;;;5.25;100.00;100262.97;10586109;27;20050;-78
2022/12/24 03:23:06;;;;;;;1.98;1.42;;;;;;;5.26;100.00;100271.66;10594832;27;20529;-77
2022/12/24 03:28:10;;;;;;;3.05;2.22;;;;;;;5.21;100.00;100268.94;10592999;27;20040;-77
2022/12/24 03:33:13;;;;;;;1.40;1.17;;;;;;;5.20;100.00;100269.75;10583474;27;20067;-78
2022/12/24 03:38:14;;;;;;;0.82;0.60;;;;;;;5.25;100.00;100270.75;10588796;27;20111;-78
2022/12/24 03:43:16;;;;;;;18.50;16.83;;;;;;;5.28;100.00;100275.16;10603023;27;20050;-79
2022/12/24 03:48:17;;;;;;;5.13;4.50;;;;;;;5.31;100.00;100280.44;10567952;27;20525;-78
2022/12/24 03:53:19;;;;;;;1.23;0.38;;;;;;;5.33;100.00;100294.38;10591838;27;20406;-78
2022/12/24 03:58:20;;;;;;;0.10;0.10;;;;;;;5.34;100.00;100301.31;10588556;27;20503;-79
2022/12/24 04:03:22;;;;;;;0.60;0.50;;;;;;;5.36;100.00;100298.75;10562088;27;20043;-79
2022/12/24 04:08:23;;;;;;;2.42;1.42;;;;;;;5.43;100.00;100305.91;10586718;27;20700;-79
2022/12/24 04:13:25;;;;;;;2.25;1.38;;;;;;;5.47;100.00;100319.03;10575632;27;20048;-78
2022/12/24 04:18:27;;;;;;;1.65;1.20;;;;;;;5.52;100.00;100321.75;10587412;27;20050;-79
2022/12/24 04:23:33;;;;;;;2.15;1.58;;;;;;;5.61;100.00;100323.75;10592241;27;20058;-78
2022/12/24 04:28:35;;;;;;;0.63;0.60;;;;;;;5.75;100.00;100324.16;10567315;27;20557;-79
2022/12/24 04:33:38;;;;;;;3.10;1.85;;;;;;;5.94;100.00;100328.19;10564141;27;20125;-78
2022/12/24 04:38:39;;;;;;;2.28;1.65;;;;;;;6.08;100.00;100326.91;10584059;27;20047;-79
2022/12/24 04:43:41;;;;;;;1.52;0.88;;;;;;;6.15;100.00;100336.59;10594538;27;20051;-79
2022/12/24 04:48:44;;;;;;;3.40;1.98;;;;;;;6.26;100.00;100343.81;10572357;27;20623;-79
2022/12/24 04:53:46;;;;;;;3.80;2.03;;;;;;;6.30;100.00;100335.28;10591502;27;20046;-80
2022/12/24 04:58:48;;;;;;;2.85;1.63;;;;;;;6.46;100.00;100333.97;10565959;27;20107;-79
2022/12/24 05:03:50;;;;;;;7.03;1.85;;;;;;;6.48;100.00;100351.34;10583005;27;20046;-79
2022/12/24 05:08:56;;;;;;;3.03;1.83;;;;;;;6.48;100.00;100346.16;10590801;27;20049;-79
2022/12/24 05:13:58;;;;;;;2.28;1.45;;;;;;;6.44;100.00;100352.16;10538779;28;20048;-78
2022/12/24 05:18:59;;;;;;;2.33;0.93;;;;;;;6.53;100.00;100360.19;10582481;27;20050;-79
2022/12/24 05:29:22;;;;;;;2.70;1.85;;;;;;;6.67;100.00;100367.47;10583117;27;20061;-79
2022/12/24 05:34:23;;;;;;;3.08;1.20;;;;;;;6.74;100.00;100369.41;10570070;28;20049;-78
2022/12/24 05:39:25;;;;;;;2.40;1.38;;;;;;;6.80;100.00;100385.19;10561577;28;20457;-80
2022/12/24 05:44:26;;;;;;;1.35;0.77;;;;;;;6.85;100.00;100399.19;10559627;28;20035;-79
2022/12/24 05:49:29;;;;;;;0.60;0.35;;;;;;;6.92;100.00;100404.53;10564876;28;20044;-78
2022/12/24 05:54:31;;;;;;;0.35;0.28;;;;;;;6.94;100.00;100421.09;10578576;28;20054;-78
2022/12/24 05:59:32;;;;;;;0.75;0.47;;;;;;;7.03;100.00;100424.81;10573394;28;20054;-80
2022/12/24 06:04:34;;;;;;;0.70;0.65;;;;;;;7.08;100.00;100432.72;10584576;28;20625;-79
2022/12/24 06:09:36;;;;;;;0.32;0.32;;;;;;;7.08;100.00;100444.00;10587022;28;20093;-78
2022/12/24 06:14:37;;;;;;;0.73;0.55;;;;;;;7.12;100.00;100445.00;10580514;28;20058;-79
2022/12/24 06:19:39;;;;;;;0.47;0.40;;;;;;;7.11;100.00;100453.63;10571150;28;20047;-79
2022/12/24 06:24:40;;;;;;;1.35;0.60;;;;;;;7.11;100.00;100457.97;10597482;28;20058;-78
2022/12/24 06:29:42;;;;;;;1.67;1.55;;;;;;;7.07;100.00;100451.78;10598949;28;20065;-78
2022/12/24 06:34:43;;;;;;;0.55;0.50;;;;;;;7.06;100.00;100455.25;10587581;28;20138;-78
2022/12/24 06:39:45;;;;;;;0.17;0.13;;;;;;;7.04;100.00;100459.50;10586690;28;20040;-80
2022/12/24 06:44:47;;;;;;;2.50;1.48;;;;;;;6.98;100.00;100467.16;10576191;27;20039;-79
2022/12/24 06:49:48;;;;;;;0.20;0.20;;;;;;;6.95;100.00;100469.69;10576359;27;20050;-79
2022/12/24 06:54:50;;;;;;;0.20;0.20;;;;;;;7.00;100.00;100487.19;10543045;27;20046;-79
2022/12/24 06:59:51;;;;;;;8.50;1.50;;;;;;;7.03;100.00;100486.41;10576222;27;20039;-79
2022/12/24 07:04:53;;;;;;;0.10;0.10;;;;;;;7.07;100.00;100506.44;10589709;27;20047;-80
2022/12/24 07:09:54;;;;;;;0.57;0.57;;;;;;;7.09;100.00;100515.22;10543091;28;20517;-79
2022/12/24 07:14:56;;;;;;;0.85;0.77;;;;;;;7.12;100.00;100517.03;10561201;27;20044;-79
2022/12/24 07:19:57;;;;;;;2.50;1.67;;;;;;;7.17;100.00;100523.22;10549116;28;20333;-80
2022/12/24 07:24:59;;;;;;;0.52;0.45;;;;;;;7.22;100.00;100525.13;10546886;27;20055;-79
2022/12/24 07:30:01;;;;;;;1.75;0.60;;;;;;;7.19;100.00;100531.94;10566177;27;20054;-79
2022/12/24 07:35:03;;;;;;;0.30;0.30;;;;;;;7.13;100.00;100545.72;10566764;28;20780;-79
2022/12/24 07:40:06;;;;;;;0.30;0.30;;;;;;;7.08;100.00;100562.91;10572202;27;20349;-80
2022/12/24 07:45:08;;;;;;;0.20;0.20;;;;;;;7.08;100.00;100553.34;10568130;27;20043;-79
2022/12/24 07:50:10;;;;;;;1.35;1.10;;;;;;;7.12;100.00;100567.38;10572275;27;20154;-79
2022/12/24 07:55:12;;;;;;;1.17;1.08;;;;;;;7.16;100.00;100569.22;10564684;27;20070;-78
2022/12/24 08:00:14;;;;;;;3.30;2.53;;;;;;;7.19;100.00;100586.63;10524007;28;20039;-79
2022/12/24 08:05:15;;;;;;;1.67;1.55;;;;;;;7.23;100.00;100589.34;10552607;28;20052;-79
2022/12/24 08:10:17;;;;;;;45.45;42.70;;;;;;;7.25;100.00;100592.00;10533266;28;20036;-78
2022/12/24 08:15:18;;;;;;;183.98;164.48;;;;;;;7.25;100.00;100595.50;10550992;28;20423;-79
2022/12/24 08:20:20;;;;;;;0.22;0.22;;;;;;;7.30;100.00;100607.78;10564046;28;20078;-79
2022/12/24 08:25:21;;;;;;;1.65;0.95;;;;;;;7.36;99.96;100626.19;10565465;27;20051;-80
2022/12/24 08:30:23;;;;;;;0.95;0.57;;;;;;;7.38;100.00;100629.69;10569694;28;20051;-82
2022/12/24 08:35:25;;;;;;;2.20;0.65;;;;;;;7.46;100.00;100636.03;10571921;27;20584;-81
2022/12/24 08:40:26;;;;;;;0.55;0.40;;;;;;;7.52;100.00;100640.50;10555993;28;20036;-81
2022/12/24 08:45:28;;;;;;;0.30;0.30;;;;;;;7.56;100.00;100653.66;10565627;28;20048;-81
2022/12/24 08:50:40;;;;;;;0.40;0.30;;;;;;;7.60;100.00;100657.22;10561123;27;20475;-81
2022/12/24 08:55:42;;;;;;;1.63;1.23;;;;;;;7.67;100.00;100664.38;10570211;27;20040;-82
2022/12/24 09:00:43;;;;;;;0.70;0.70;;;;;;;7.78;100.00;100657.72;10549001;28;20031;-81
2022/12/24 09:05:45;;;;;;;0.75;0.73;;;;;;;8.03;100.00;100674.00;10551923;27;20039;-82
2022/12/24 09:10:46;;;;;;;1.77;0.60;;;;;;;8.14;100.00;100687.31;10575758;27;20046;-81
2022/12/24 09:15:53;;;;;;;0.40;0.32;;;;;;;8.09;100.00;100688.91;10574931;27;20410;-80
2022/12/24 09:21:02;;;;;;;0.35;0.35;;;;;;;8.04;99.99;100700.97;10546038;28;20051;-81
2022/12/24 09:26:09;;;;;;;4.37;0.70;;;;;;;7.98;99.89;100704.28;10569838;28;20055;-82
2022/12/24 09:31:11;;;;;;;0.88;0.70;;;;;;;8.00;99.79;100709.53;10553030;28;20484;-81
2022/12/24 09:36:13;;;;;;;0.30;0.30;;;;;;;8.10;99.74;100711.56;10564101;27;20555;-81
2022/12/24 09:41:30;;;;;;;1.00;0.50;;;;;;;8.22;99.90;100721.41;10568228;28;20765;-82
2022/12/24 09:46:37;;;;;;;0.45;0.40;;;;;;;8.27;99.39;100732.84;10574787;28;20402;-80
2022/12/24 09:51:52;;;;;;;0.30;0.30;;;;;;;8.35;99.29;100740.84;10555801;28;20038;-82
2022/12/24 09:56:57;;;;;;;0.30;0.30;;;;;;;8.23;99.09;100746.66;10566880;28;20046;-81
2022/12/24 10:01:59;;;;;;;1.70;1.05;;;;;;;8.23;98.83;100762.31;10566352;28;20491;-80
2022/12/24 10:07:15;;;;;;;0.60;0.60;;;;;;;8.34;98.89;100759.97;10566235;28;20048;-81
2022/12/24 10:12:25;;;;;;;13.52;1.92;;;;;;;8.32;98.49;100766.03;10558439;28;20246;-81
2022/12/24 10:17:46;;;;;;;2.90;0.70;;;;;;;8.25;98.30;100771.06;10569466;28;20042;-81
2022/12/24 10:22:50;;;;;;;0.55;0.55;;;;;;;8.18;98.16;100772.63;10554159;28;20526;-83
2022/12/24 10:27:54;;;;;;;0.73;0.63;;;;;;;8.19;97.97;100779.59;10572953;28;20039;-81
2022/12/24 10:32:56;;;;;;;0.40;0.40;;;;;;;8.22;97.92;100779.69;10574053;28;20047;-80
2022/12/24 10:37:57;;;;;;;0.20;0.20;;;;;;;8.28;97.91;100779.84;10574178;28;20043;-81
2022/12/24 10:42:59;;;;;;;0.55;0.45;;;;;;;8.40;97.82;100770.56;10574219;28;20043;-80
2022/12/24 10:48:06;;;;;;;2.00;1.30;;;;;;;8.42;97.76;100776.69;10555265;28;20051;-81
2022/12/24 10:53:23;;;;;;;1.00;0.77;;;;;;;8.42;97.77;100784.53;10555740;28;20040;-80
2022/12/24 10:58:24;;;;;;;2.45;0.60;;;;;;;8.40;97.68;100794.06;10571899;28;20082;-81
2022/12/24 11:03:32;;;;;;;1.02;0.93;;;;;;;8.44;97.61;100802.03;10553953;28;20054;-81
2022/12/24 11:08:37;;;;;;;1.27;0.95;;;;;;;8.49;97.17;100821.28;10571501;28;20051;-79
2022/12/24 11:13:44;;;;;;;0.60;0.40;;;;;;;8.69;97.42;100807.00;10572760;28;20140;-80
2022/12/24 11:18:49;;;;;;;2.70;0.73;;;;;;;8.81;97.47;100807.28;10575373;27;20050;-80
2022/12/24 11:23:56;;;;;;;2.40;1.02;;;;;;;8.91;97.28;100804.06;10531936;28;20035;-80
2022/12/24 11:29:21;;;;;;;8.05;1.73;;;;;;;8.79;97.02;100794.19;10556024;27;20564;-81
2022/12/24 11:34:31;;;;;;;3.65;1.10;;;;;;;8.72;97.06;100789.69;10562597;28;20423;-80
2022/12/24 11:39:40;;;;;;;2.72;1.58;;;;;;;8.73;96.72;100795.78;10570886;28;20052;-79
2022/12/24 11:44:49;;;;;;;3.72;0.95;;;;;;;8.67;96.67;100794.78;10571249;28;20048;-81
2022/12/24 11:49:52;;;;;;;1.45;0.70;;;;;;;8.54;96.90;100789.22;10552828;28;20095;-82
2022/12/24 11:55:02;;;;;;;2.65;0.88;;;;;;;8.51;97.07;100783.94;10569590;28;20048;-83
2022/12/24 12:00:04;;;;;;;;;;;;;;;8.60;97.35;100803.31;10552900;28;20048;-80
2022/12/24 12:05:22;;;;;;;1.95;1.48;;;;;;;8.74;97.60;100806.28;10571687;28;19928;-83
2022/12/24 12:10:31;;;;;;;8.73;1.80;;;;;;;8.84;97.87;100795.22;10572163;28;20469;-82
2022/12/24 12:16:01;;;;;;;1.98;1.20;;;;;;;8.77;97.80;100806.34;10549500;28;20048;-82
2022/12/24 12:21:07;;;;;;;1.13;0.63;;;;;;;8.89;98.16;100813.59;10548886;28;20107;-83
2022/12/24 12:26:17;;;;;;;5.50;1.17;;;;;;;8.87;98.07;100824.84;10549225;28;20062;-83
2022/12/24 12:31:44;;;;;;;1.67;0.80;;;;;;;8.82;98.10;100829.97;10573009;28;20039;-80
2022/12/24 12:36:58;;;;;;;0.50;0.45;;;;;;;8.69;97.97;100827.88;10567832;28;20067;-82
2022/12/24 12:42:23;;;;;;;4.90;1.25;;;;;;;8.66;97.87;100826.06;10569429;28;20099;-83
2022/12/24 12:47:51;;;;;;;0.68;0.52;;;;;;;8.72;97.72;100833.19;10555739;27;20047;-82
2022/12/24 12:53:23;;;;;;;0.52;0.30;;;;;;;8.76;97.68;100842.88;10589272;27;20043;-82
2022/12/24 12:58:34;;;;;;;7.50;2.17;;;;;;;8.76;97.47;100840.25;10552258;28;20430;-82
2022/12/24 13:04:13;;;;;;;1.77;0.98;;;;;;;8.83;97.41;100852.63;10590094;27;20044;-82
2022/12/24 13:09:32;;;;;;;3.30;0.80;;;;;;;8.78;97.37;100846.38;10599338;27;20046;-82
2022/12/24 13:14:45;;;;;;;2.25;1.45;;;;;;;8.78;97.22;100857.72;10568217;28;20043;-82
2022/12/24 13:20:09;;;;;;;0.35;0.35;;;;;;;8.75;97.17;100867.19;10559767;27;20047;-81
2022/12/24 13:25:21;;;;;;;2.60;0.75;;;;;;;8.72;96.87;100868.03;10564392;27;20927;-82
2022/12/24 13:30:42;;;;;;;0.10;0.10;;;;;;;8.80;96.93;100879.53;10571914;27;20062;-81
2022/12/24 13:36:01;;;;;;;2.85;1.58;;;;;;;8.78;96.88;100896.00;10577625;27;20623;-81
2022/12/24 13:41:30;;;;;;;2.70;0.95;;;;;;;8.80;96.78;100899.53;10593421;28;20474;-82
2022/12/24 13:47:02;;;;;;;5.95;1.95;;;;;;;8.93;96.73;100903.34;10564563;28;20070;-81
2022/12/24 13:52:29;;;;;;;1.02;0.75;;;;;;;8.92;96.66;100907.69;10579677;28;20040;-79
2022/12/24 13:57:35;;;;;;;1.52;0.60;;;;;;;8.83;96.21;100902.25;10587375;27;20578;-81
2022/12/24 14:02:51;;;;;;;0.40;0.40;;;;;;;8.71;96.03;100913.25;10579805;27;20035;-81
2022/12/24 14:07:55;;;;;;;0.25;0.25;;;;;;;8.59;95.49;100920.75;10594481;27;20135;-82
2022/12/24 14:12:57;;;;;;;1.02;0.60;;;;;;;8.46;95.41;100911.69;10576749;27;20039;-81
2022/12/24 14:17:58;;;;;;;1.15;0.95;;;;;;;8.38;95.47;100914.03;10558051;27;20044;-81
2022/12/24 14:23:00;;;;;;;0.55;0.40;;;;;;;8.37;95.29;100932.28;10584537;27;20031;-81
2022/12/24 14:28:17;;;;;;;0.60;0.17;;;;;;;8.35;95.12;100939.16;10569523;27;20050;-81
2022/12/24 14:33:29;;;;;;;2.80;0.50;;;;;;;8.34;95.33;100953.06;10553514;27;20042;-81
2022/12/24 14:38:31;;;;;;;1.70;1.02;;;;;;;8.25;95.16;100974.53;10577742;27;20044;-81
2022/12/24 14:43:55;;;;;;;2.58;1.17;;;;;;;8.16;95.16;100982.09;10579725;27;20421;-81
2022/12/24 14:49:09;;;;;;;0.73;0.50;;;;;;;8.06;95.12;100986.13;10614492;27;20051;-81
2022/12/24 14:54:26;;;;;;;3.65;1.33;;;;;;;7.92;95.16;100994.41;10551986;27;20043;-80
2022/12/24 14:59:27;;;;;;;0.93;0.50;;;;;;;7.81;95.27;101003.63;10574730;28;20055;-80
2022/12/24 15:04:29;;;;;;;1.98;1.27;;;;;;;7.74;95.43;101020.78;10570341;28;20134;-80
2022/12/24 15:09:32;;;;;;;2.45;1.52;;;;;;;7.60;95.36;101022.94;10579151;27;20319;-82
2022/12/24 15:14:41;;;;;;;5.10;1.65;;;;;;;7.56;95.51;101041.91;10575685;27;20063;-79
2022/12/24 15:19:46;;;;;;;4.60;2.03;;;;;;;7.53;95.51;101047.03;10575980;27;20048;-79
2022/12/24 15:24:48;;;;;;;1.27;0.75;;;;;;;7.46;95.45;101058.09;10563461;27;20044;-78
2022/12/24 15:29:55;;;;;;;0.20;0.20;;;;;;;7.60;95.73;101059.44;10560881;27;20051;-80
2022/12/24 15:34:59;;;;;;;0.43;0.22;;;;;;;7.66;95.84;101057.88;10618409;27;20043;-80
2022/12/24 15:40:08;;;;;;;1.38;0.60;;;;;;;7.81;95.97;101067.91;10612643;27;20066;-81
2022/12/24 15:45:20;;;;;;;2.97;1.00;;;;;;;7.85;95.77;101075.91;10599757;27;20040;-80
2022/12/24 15:50:30;;;;;;;7.72;0.82;;;;;;;7.85;95.74;101075.91;10600916;27;20216;-80
2022/12/24 15:55:39;;;;;;;1.50;1.35;;;;;;;7.90;95.58;101087.34;10590340;27;20104;-81
2022/12/24 16:00:41;;;;;;;0.87;0.77;;;;;;;7.95;94.97;101087.50;10552448;27;20142;-79
2022/12/24 16:05:43;;;;;;;7.80;1.95;;;;;;;7.97;94.48;101097.16;10597572;27;20459;-79
2022/12/24 16:10:48;;;;;;;1.42;0.93;;;;;;;8.00;93.63;101112.03;10592968;27;20053;-79
2022/12/24 16:15:58;;;;;;;3.13;1.70;;;;;;;8.02;93.35;101115.56;10586403;27;20046;-80
2022/12/24 16:21:00;;;;;;;0.28;0.28;;;;;;;8.00;93.03;101112.03;10598971;27;20035;-80
2022/12/24 16:26:02;;;;;;;0.73;0.47;;;;;;;7.94;92.78;101117.00;10589319;27;20425;-79
2022/12/24 16:31:04;;;;;;;1.10;0.75;;;;;;;7.90;92.82;101126.47;10594612;27;20065;-80
2022/12/24 16:36:05;;;;;;;1.55;0.93;;;;;;;7.89;92.76;101129.91;10610385;27;20057;-80
2022/12/24 16:41:07;;;;;;;7.70;1.20;;;;;;;7.91;92.73;101133.47;10608132;27;20403;-80
2022/12/24 16:46:12;;;;;;;7.45;1.25;;;;;;;7.85;92.63;101135.88;10612137;27;20099;-80
2022/12/24 16:51:14;;;;;;;0.20;0.20;;;;;;;7.87;92.95;101151.56;10598226;27;20070;-79
2022/12/24 16:56:15;;;;;;;2.50;1.75;;;;;;;7.87;92.88;101160.25;10616690;27;20478;-79
2022/12/24 17:01:17;;;;;;;0.65;0.65;;;;;;;7.81;92.82;101153.94;10602578;27;20059;-79
2022/12/24 17:06:19;;;;;;;0.85;0.52;;;;;;;7.77;93.16;101168.59;10595290;27;20051;-80
2022/12/24 17:11:23;;;;;;;0.40;0.40;;;;;;;7.72;93.13;101173.66;10592840;27;20054;-78
2022/12/24 17:16:25;;;;;;;1.95;1.55;;;;;;;7.68;92.93;101181.31;10590009;27;20043;-79
2022/12/24 17:21:26;;;;;;;0.55;0.30;;;;;;;7.69;93.03;101177.91;10601919;27;20063;-80
2022/12/24 17:26:28;;;;;;;2.83;0.73;;;;;;;7.72;93.09;101191.03;10577419;27;20113;-79
2022/12/24 17:31:31;;;;;;;6.32;2.72;;;;;;;7.71;92.91;101194.47;10589751;27;20042;-80
2022/12/24 17:36:33;;;;;;;1.17;0.55;;;;;;;7.68;92.89;101196.97;10597735;27;20043;-79
2022/12/24 17:41:34;;;;;;;1.67;0.63;;;;;;;7.63;93.00;101199.41;10574734;28;20114;-81
2022/12/24 17:46:36;;;;;;;4.05;1.20;;;;;;;7.61;92.91;101201.97;10575085;28;20550;-79
2022/12/24 17:51:38;;;;;;;0.85;0.80;;;;;;;7.61;92.89;101207.16;10601705;28;20054;-80
2022/12/24 17:56:46;;;;;;;0.20;0.20;;;;;;;7.63;93.12;101219.34;10594008;28;20103;-81
2022/12/24 18:01:47;;;;;;;1.50;0.88;;;;;;;7.63;92.89;101220.25;10585480;28;20038;-80
2022/12/24 18:06:49;;;;;;;2.00;1.38;;;;;;;7.58;92.94;101216.56;10558852;28;20052;-81
2022/12/24 18:11:53;;;;;;;2.42;1.30;;;;;;;7.50;92.91;101216.31;10576702;28;20122;-79
2022/12/24 18:16:54;;;;;;;1.33;0.75;;;;;;;7.40;92.69;101216.78;10584894;28;20050;-81
2022/12/24 18:21:56;;;;;;;2.17;1.08;;;;;;;7.23;92.70;101211.84;10552337;28;20406;-80
2022/12/24 18:26:58;;;;;;;0.63;0.63;;;;;;;7.05;92.64;101208.56;10567202;28;20052;-78
2022/12/24 18:31:59;;;;;;;9.60;1.02;;;;;;;6.85;92.75;101211.28;10568289;28;20043;-79
2022/12/24 18:37:01;;;;;;;2.85;1.08;;;;;;;6.67;93.16;101206.25;10551316;28;20078;-79
2022/12/24 18:42:02;;;;;;;4.43;0.60;;;;;;;6.50;93.39;101215.06;10578935;28;20044;-79
2022/12/24 18:47:04;;;;;;;3.28;1.50;;;;;;;6.33;93.49;101209.19;10560103;28;20052;-79
2022/12/24 18:52:08;;;;;;;3.47;1.75;;;;;;;6.22;93.75;101213.06;10578638;28;20059;-80
2022/12/24 18:57:09;;;;;;;0.13;0.13;;;;;;;6.04;93.91;101211.47;10584281;28;20048;-80
2022/12/24 19:02:11;;;;;;;1.65;1.48;;;;;;;5.91;94.23;101214.34;10586940;28;20048;-80
2022/12/24 19:07:13;;;;;;;2.17;1.52;;;;;;;5.82;94.89;101213.13;10587095;27;20122;-80
2022/12/24 19:12:14;;;;;;;0.17;0.17;;;;;;;5.75;94.97;101220.56;10579932;28;20055;-81
2022/12/24 19:17:16;;;;;;;2.05;1.15;;;;;;;5.58;95.13;101219.84;10591994;27;20050;-81
2022/12/24 19:22:17;;;;;;;0.17;0.17;;;;;;;5.44;95.38;101220.09;10598890;27;20476;-81
2022/12/24 19:27:19;;;;;;;1.98;1.10;;;;;;;5.36;95.40;101223.19;10549673;27;20050;-81
2022/12/24 19:32:20;;;;;;;1.95;1.35;;;;;;;5.23;95.83;101224.34;10531178;27;20503;-78
2022/12/24 19:37:22;;;;;;;0.40;0.40;;;;;;;5.13;95.94;101239.50;10554623;27;20048;-79
2022/12/24 19:42:23;;;;;;;0.50;0.50;;;;;;;5.04;96.28;101244.25;10566006;27;20039;-79
2022/12/24 19:47:25;;;;;;;1.02;0.52;;;;;;;5.01;96.41;101244.09;10558541;27;20062;-79
2022/12/24 19:52:27;;;;;;;0.63;0.57;;;;;;;4.98;96.70;101246.56;10548308;28;20146;-80
2022/12/24 19:57:28;;;;;;;2.88;0.40;;;;;;;4.93;96.88;101248.06;10544335;28;20081;-79
2022/12/24 20:02:32;;;;;;;0.10;0.10;;;;;;;4.89;96.88;101261.69;10550448;27;20050;-82
2022/12/24 20:07:33;;;;;;;0.20;0.20;;;;;;;4.85;96.88;101271.06;10569874;28;20035;-80
2022/12/24 20:12:35;;;;;;;0.25;0.25;;;;;;;4.78;97.29;101266.38;10570999;28;20551;-80
2022/12/24 20:17:36;;;;;;;1.85;0.80;;;;;;;4.72;97.30;101279.94;10559668;28;20052;-79
2022/12/24 20:22:38;;;;;;;0.40;0.40;;;;;;;4.66;97.60;101282.22;10554950;27;20114;-78
2022/12/24 20:27:39;;;;;;;0.40;0.20;;;;;;;4.64;97.67;101286.47;10569135;27;20043;-80
2022/12/24 20:32:41;;;;;;;1.05;0.65;;;;;;;4.56;97.68;101293.88;10558782;28;20040;-80
2022/12/24 20:37:43;;;;;;;0.22;0.22;;;;;;;4.51;97.81;101304.81;10566105;27;20043;-81
2022/12/24 20:42:46;;;;;;;0.38;0.38;;;;;;;4.49;97.92;101307.34;10575346;27;20043;-79
2022/12/24 20:47:48;;;;;;;0.38;0.38;;;;;;;4.43;97.96;101318.28;10566573;28;20066;-79
2022/12/24 20:52:50;;;;;;;1.08;0.93;;;;;;;4.45;98.20;101320.09;10574534;28;20483;-82
2022/12/24 20:57:52;;;;;;;0.52;0.43;;;;;;;4.47;98.13;101324.50;10555544;27;20044;-80
2022/12/24 21:02:53;;;;;;;0.65;0.57;;;;;;;4.39;98.33;101325.84;10580045;27;20035;-80
2022/12/24 21:07:55;;;;;;;0.50;0.50;;;;;;;4.35;98.39;101322.19;10592962;27;20141;-78
2022/12/24 21:12:58;;;;;;;6.13;1.50;;;;;;;4.34;98.40;101329.88;10557843;27;20042;-79
2022/12/24 21:18:08;;;;;;;0.75;0.60;;;;;;;4.29;98.58;101332.25;10577020;27;20031;-78
2022/12/24 21:23:10;;;;;;;1.15;0.70;;;;;;;4.23;98.60;101331.94;10566637;27;20047;-80
2022/12/24 21:28:12;;;;;;;1.02;0.55;;;;;;;4.15;98.94;101330.66;10590833;27;20454;-79
2022/12/24 21:33:13;;;;;;;0.50;0.50;;;;;;;4.13;98.79;101332.25;10562460;28;20050;-81
2022/12/24 21:38:15;;;;;;;0.13;0.13;;;;;;;4.05;98.89;101314.63;10563665;28;20050;-81
2022/12/24 21:43:16;;;;;;;0.95;0.73;;;;;;;3.98;98.95;101312.53;10580449;28;20154;-80
2022/12/24 21:58:59;;;;;;;0.28;0.28;;;;;;;3.76;98.99;101299.25;10576997;28;20042;-81
2022/12/24 22:04:01;;;;;;;0.28;0.28;;;;;;;3.67;99.06;101305.72;10574334;28;20045;-80
2022/12/24 22:14:23;;;;;;;0.40;0.22;;;;;;;3.49;98.92;101290.09;10585115;27;20163;-80
2022/12/24 22:19:24;;;;;;;0.50;0.50;;;;;;;3.56;99.13;101280.97;10584087;28;20035;-80
2022/12/24 22:24:26;;;;;;;0.73;0.70;;;;;;;3.62;99.42;101280.38;10593625;27;20044;-80
2022/12/24 22:29:27;;;;;;;6.80;1.65;;;;;;;3.61;99.36;101283.81;10583962;28;20051;-80
2022/12/24 22:34:30;;;;;;;0.90;0.60;;;;;;;3.44;99.07;101288.97;10581329;28;20111;-81
2022/12/24 22:39:32;;;;;;;0.70;0.70;;;;;;;3.30;99.42;101267.50;10546707;28;20062;-81
2022/12/24 22:44:33;;;;;;;0.43;0.43;;;;;;;3.16;99.53;101289.16;10583162;28;20040;-80
2022/12/24 22:49:36;;;;;;;0.70;0.70;;;;;;;3.09;99.24;101294.78;10589888;27;20050;-82
2022/12/24 22:54:38;;;;;;;0.40;0.40;;;;;;;3.05;99.46;101278.22;10595205;27;20134;-80
2022/12/24 22:59:39;;;;;;;2.60;1.40;;;;;;;2.99;99.20;101277.88;10598990;27;20419;-81
2022/12/24 23:04:41;;;;;;;1.88;1.63;;;;;;;3.01;99.47;101273.66;10592197;27;20605;-80
2022/12/24 23:09:42;;;;;;;1.20;0.93;;;;;;;3.05;99.62;101288.56;10597150;27;20046;-80
2022/12/24 23:14:56;;;;;;;11.30;3.88;;;;;;;3.14;99.73;101311.47;10593977;27;20051;-80
2022/12/24 23:20:00;;;;;;;1.30;1.15;;;;;;;3.21;99.83;101317.88;10584288;27;20616;-80
2022/12/24 23:25:02;;;;;;;0.40;0.40;;;;;;;3.18;99.73;101313.41;10597776;27;20063;-79
2022/12/24 23:30:04;;;;;;;2.03;1.13;;;;;;;3.18;99.99;101309.16;10596090;27;20140;-79
2022/12/24 23:35:06;;;;;;;0.68;0.68;;;;;;;3.14;100.00;101314.06;10591036;27;20047;-80
2022/12/24 23:40:08;;;;;;;5.55;2.55;;;;;;;3.08;99.94;101300.75;10602174;27;20538;-80
2022/12/24 23:45:10;;;;;;;1.13;1.02;;;;;;;2.92;100.00;101310.25;10585883;27;20050;-80
2022/12/24 23:50:11;;;;;;;1.52;0.70;;;;;;;2.78;100.00;101299.13;10600538;27;20513;-81
2022/12/24 23:55:13;;;;;;;0.55;0.55;;;;;;;2.70;99.76;101309.84;10587405;27;20632;-80
